createdAt,value
2018-11-27T00:00:27.771Z,30.60
2018-11-27T00:03:04.434Z,31.60
2018-11-27T00:05:34.139Z,25.20
2018-11-27T00:08:03.114Z,30.67
2018-11-27T00:10:33.255Z,35.30
2018-11-27T00:13:02.066Z,25.87
2018-11-27T00:15:30.962Z,33.47
2018-11-27T00:18:00.080Z,27.90
2018-11-27T00:20:28.952Z,23.37
2018-11-27T00:22:57.705Z,26.40
2018-11-27T00:25:26.594Z,20.03
2018-11-27T00:27:55.395Z,23.87
2018-11-27T00:30:24.291Z,23.37
2018-11-27T00:32:53.148Z,24.00
2018-11-27T00:35:21.917Z,24.13
2018-11-27T00:37:50.887Z,21.70
2018-11-27T00:40:21.042Z,25.97
2018-11-27T00:42:49.896Z,24.13
2018-11-27T00:45:19.669Z,23.60
2018-11-27T00:47:49.249Z,28.37
2018-11-27T00:50:20.230Z,27.93
2018-11-27T00:52:49.273Z,24.00
2018-11-27T00:55:18.837Z,23.00
2018-11-27T00:57:49.877Z,21.30
2018-11-27T01:00:19.602Z,23.23
2018-11-27T01:02:48.490Z,22.77
2018-11-27T01:05:18.639Z,23.37
2018-11-27T01:07:47.603Z,22.10
2018-11-27T01:10:19.337Z,24.20
2018-11-27T01:12:48.166Z,24.67
2018-11-27T01:15:17.213Z,25.80
2018-11-27T01:17:48.908Z,25.67
2018-11-27T01:20:21.269Z,25.63
2018-11-27T01:22:50.145Z,23.50
2018-11-27T01:25:18.921Z,21.83
2018-11-27T01:27:47.749Z,26.30
2018-11-27T01:30:17.393Z,24.67
2018-11-27T01:32:46.365Z,28.23
2018-11-27T01:35:16.136Z,28.13
2018-11-27T01:37:45.104Z,25.83
2018-11-27T01:40:18.586Z,26.20
2018-11-27T01:42:48.329Z,28.00
2018-11-27T01:45:18.238Z,26.70
2018-11-27T01:47:47.236Z,24.27
2018-11-27T01:50:16.943Z,24.97
2018-11-27T01:52:45.807Z,27.17
2018-11-27T01:55:15.429Z,25.57
2018-11-27T01:57:44.294Z,28.63
2018-11-27T02:00:22.656Z,27.80
2018-11-27T02:02:51.698Z,24.20
2018-11-27T02:05:20.849Z,25.93
2018-11-27T02:07:49.665Z,26.20
2018-11-27T02:10:18.547Z,28.37
2018-11-27T02:12:48.329Z,25.73
2018-11-27T02:15:20.009Z,26.80
2018-11-27T02:17:48.862Z,27.20
2018-11-27T02:20:18.361Z,23.83
2018-11-27T02:22:47.262Z,27.07
2018-11-27T02:25:30.789Z,32.73
2018-11-27T02:27:59.562Z,28.17
2018-11-27T02:30:28.855Z,22.93
2018-11-27T02:32:57.746Z,23.60
2018-11-27T02:35:27.109Z,23.87
2018-11-27T02:37:56.854Z,22.40
2018-11-27T02:40:25.657Z,24.37
2018-11-27T02:42:54.491Z,24.53
2018-11-27T02:45:24.358Z,24.33
2018-11-27T02:47:53.742Z,22.10
2018-11-27T02:50:23.686Z,25.13
2018-11-27T02:52:52.438Z,21.40
2018-11-27T02:55:24.363Z,22.13
2018-11-27T02:57:53.125Z,21.33
2018-11-27T03:00:25.004Z,23.80
2018-11-27T03:02:53.914Z,23.30
2018-11-27T03:05:30.655Z,23.60
2018-11-27T03:07:59.500Z,21.93
2018-11-27T03:10:28.300Z,24.80
2018-11-27T03:12:57.328Z,22.47
2018-11-27T03:15:26.065Z,21.23
2018-11-27T03:17:54.913Z,23.30
2018-11-27T03:20:23.626Z,24.63
2018-11-27T03:22:52.370Z,22.13
2018-11-27T03:25:22.110Z,21.40
2018-11-27T03:27:51.918Z,22.70
2018-11-27T03:30:22.345Z,24.20
2018-11-27T03:32:51.238Z,25.10
2018-11-27T03:35:20.862Z,23.03
2018-11-27T03:37:50.036Z,21.30
2018-11-27T03:40:20.775Z,21.33
2018-11-27T03:42:49.575Z,25.60
2018-11-27T03:45:19.125Z,26.53
2018-11-27T03:47:47.921Z,23.00
2018-11-27T03:50:18.109Z,24.30
2018-11-27T03:52:46.917Z,24.03
2018-11-27T03:55:15.752Z,23.87
2018-11-27T03:57:44.587Z,25.67
2018-11-27T04:00:21.395Z,22.80
2018-11-27T04:02:52.626Z,22.50
2018-11-27T04:05:21.780Z,22.43
2018-11-27T04:07:50.945Z,21.90
2018-11-27T04:10:20.262Z,23.33
2018-11-27T04:12:49.013Z,21.00
2018-11-27T04:15:17.870Z,24.20
2018-11-27T04:17:46.766Z,24.00
2018-11-27T04:20:15.547Z,25.70
2018-11-27T04:22:44.674Z,24.67
2018-11-27T04:25:14.520Z,23.63
2018-11-27T04:27:43.537Z,21.77
2018-11-27T04:30:16.605Z,27.30
2018-11-27T04:32:45.496Z,25.77
2018-11-27T04:35:18.776Z,24.77
2018-11-27T04:37:47.994Z,22.27
2018-11-27T04:40:20.719Z,24.93
2018-11-27T04:42:49.607Z,22.13
2018-11-27T04:45:20.396Z,24.30
2018-11-27T04:47:49.250Z,22.57
2018-11-27T04:50:18.659Z,24.70
2018-11-27T04:52:47.482Z,27.63
2018-11-27T04:55:20.098Z,26.13
2018-11-27T04:57:50.758Z,26.60
2018-11-27T05:00:22.200Z,23.73
2018-11-27T05:02:51.147Z,21.80
2018-11-27T05:05:20.156Z,21.40
2018-11-27T05:07:48.964Z,23.77
2018-11-27T05:10:20.226Z,25.33
2018-11-27T05:12:49.021Z,25.33
2018-11-27T05:15:18.727Z,23.30
2018-11-27T05:17:48.670Z,25.00
2018-11-27T05:20:17.462Z,24.03
2018-11-27T05:22:46.288Z,20.97
2018-11-27T05:25:16.022Z,23.80
2018-11-27T05:27:53.717Z,28.17
2018-11-27T05:30:23.418Z,23.93
2018-11-27T05:32:52.328Z,21.73
2018-11-27T05:35:25.590Z,22.20
2018-11-27T05:37:54.457Z,21.77
2018-11-27T05:40:24.089Z,25.90
2018-11-27T05:42:58.189Z,23.73
2018-11-27T05:45:27.274Z,27.30
2018-11-27T05:47:56.054Z,25.60
2018-11-27T05:50:25.462Z,22.73
2018-11-27T05:52:54.298Z,20.97
2018-11-27T05:55:23.089Z,21.97
2018-11-27T05:57:53.425Z,25.13
2018-11-27T06:00:25.249Z,21.90
2018-11-27T06:02:55.353Z,24.27
2018-11-27T06:06:01.127Z,24.67
2018-11-27T06:08:30.289Z,24.27
2018-11-27T06:10:59.287Z,24.47
2018-11-27T06:13:29.442Z,24.97
2018-11-27T06:15:58.515Z,25.20
2018-11-27T06:32:27.589Z,29.77
2018-11-27T06:34:56.462Z,23.70
2018-11-27T06:37:25.350Z,23.33
2018-11-27T06:39:54.239Z,21.90
2018-11-27T06:42:23.066Z,29.20
2018-11-27T06:44:51.922Z,27.53
2018-11-27T06:47:22.176Z,23.30
2018-11-27T06:49:52.518Z,22.00
2018-11-27T06:52:23.390Z,16.30
2018-11-27T06:55:00.917Z,21.00
2018-11-27T06:57:29.862Z,26.87
2018-11-27T06:59:58.726Z,26.20
2018-11-27T07:02:27.643Z,28.37
2018-11-27T07:04:56.523Z,23.33
2018-11-27T07:07:25.539Z,22.13
2018-11-27T07:09:54.351Z,27.93
2018-11-27T07:12:23.071Z,28.03
2018-11-27T07:14:51.889Z,23.30
2018-11-27T07:17:20.865Z,24.50
2018-11-27T07:19:49.756Z,22.37
2018-11-27T07:22:18.522Z,28.77
2018-11-27T07:24:47.397Z,25.63
2018-11-27T07:27:17.171Z,27.57
2018-11-27T07:29:47.139Z,26.63
2018-11-27T07:32:17.224Z,24.13
2018-11-27T07:34:47.076Z,22.43
2018-11-27T07:37:16.006Z,27.63
2018-11-27T07:39:44.883Z,28.70
2018-11-27T07:42:13.672Z,29.23
2018-11-27T07:44:42.522Z,30.93
2018-11-27T07:47:11.365Z,31.33
2018-11-27T07:49:40.241Z,28.70
2018-11-27T07:52:09.122Z,31.30
2018-11-27T07:54:37.997Z,29.57
2018-11-27T07:57:06.859Z,31.40
2018-11-27T07:59:41.290Z,33.20
2018-11-27T08:02:10.182Z,32.40
2018-11-27T08:04:39.046Z,34.50
2018-11-27T08:07:07.861Z,30.17
2018-11-27T08:09:36.737Z,30.73
2018-11-27T08:12:05.492Z,31.00
2018-11-27T08:14:34.222Z,29.57
2018-11-27T08:17:03.070Z,27.70
2018-11-27T08:19:31.933Z,29.80
2018-11-27T08:22:00.824Z,28.03
2018-11-27T08:24:29.683Z,28.77
2018-11-27T08:26:58.528Z,35.30
2018-11-27T08:29:27.450Z,33.73
2018-11-27T08:31:56.240Z,33.67
2018-11-27T08:34:25.113Z,35.70
2018-11-27T08:36:53.933Z,37.10
2018-11-27T08:39:22.737Z,26.23
2018-11-27T08:41:51.549Z,34.50
2018-11-27T08:44:20.369Z,35.13
2018-11-27T08:46:49.200Z,35.17
2018-11-27T08:49:18.049Z,32.13
2018-11-27T08:51:46.775Z,35.63
2018-11-27T08:54:15.641Z,31.37
2018-11-27T08:56:44.655Z,29.37
2018-11-27T08:59:13.347Z,28.73
2018-11-27T09:01:43.009Z,29.47
2018-11-27T09:04:11.899Z,27.10
2018-11-27T09:06:40.854Z,24.93
2018-11-27T09:09:10.652Z,26.33
2018-11-27T09:11:39.501Z,34.93
2018-11-27T09:14:08.391Z,38.73
2018-11-27T09:16:37.250Z,27.30
2018-11-27T09:19:06.245Z,36.70
2018-11-27T09:21:35.204Z,35.07
2018-11-27T09:24:04.115Z,37.50
2018-11-27T09:26:32.986Z,38.33
2018-11-27T09:29:01.837Z,36.20
2018-11-27T09:31:30.628Z,39.03
2018-11-27T09:33:59.497Z,39.03
2018-11-27T09:36:28.923Z,38.93
2018-11-27T09:38:57.773Z,32.33
2018-11-27T09:41:26.537Z,38.47
2018-11-27T09:43:55.343Z,38.40
2018-11-27T09:46:24.137Z,30.50
2018-11-27T09:48:52.922Z,36.40
2018-11-27T09:51:21.764Z,35.80
2018-11-27T09:53:50.590Z,39.63
2018-11-27T09:56:20.436Z,39.87
2018-11-27T09:58:49.245Z,34.60
2018-11-27T10:01:18.113Z,27.13
2018-11-27T10:03:46.958Z,35.13
2018-11-27T10:06:15.793Z,32.13
2018-11-27T10:08:44.737Z,27.80
2018-11-27T10:11:13.675Z,27.60
2018-11-27T10:13:42.492Z,30.70
2018-11-27T10:16:11.353Z,31.63
2018-11-27T10:18:40.128Z,29.63
2018-11-27T10:21:08.890Z,37.53
2018-11-27T10:23:37.676Z,35.20
2018-11-27T10:26:06.653Z,33.97
2018-11-27T10:28:35.391Z,31.67
2018-11-27T10:31:04.167Z,36.90
2018-11-27T10:33:32.933Z,31.13
2018-11-27T10:36:01.673Z,35.70
2018-11-27T10:38:30.538Z,28.13
2018-11-27T10:40:59.313Z,31.80
2018-11-27T10:43:28.129Z,31.17
2018-11-27T10:45:57.077Z,28.00
2018-11-27T10:48:25.939Z,31.40
2018-11-27T10:50:54.827Z,28.73
2018-11-27T10:53:23.741Z,28.10
2018-11-27T10:55:53.306Z,30.33
2018-11-27T10:58:22.245Z,31.97
2018-11-27T11:00:56.174Z,30.60
2018-11-27T11:03:25.513Z,28.80
2018-11-27T11:05:54.933Z,34.43
2018-11-27T11:08:23.775Z,30.03
2018-11-27T11:10:52.853Z,28.13
2018-11-27T11:13:21.739Z,27.60
2018-11-27T11:15:50.709Z,28.73
2018-11-27T11:18:19.573Z,30.23
2018-11-27T11:20:48.414Z,27.47
2018-11-27T11:23:17.289Z,28.13
2018-11-27T11:25:46.075Z,26.80
2018-11-27T11:28:15.671Z,22.47
2018-11-27T11:30:44.564Z,24.03
2018-11-27T11:33:13.389Z,22.03
2018-11-27T11:35:42.223Z,27.57
2018-11-27T11:38:11.101Z,28.70
2018-11-27T11:40:39.862Z,30.07
2018-11-27T11:43:08.689Z,28.43
2018-11-27T11:45:37.485Z,28.57
2018-11-27T11:48:06.618Z,30.23
2018-11-27T11:50:35.842Z,27.50
2018-11-27T11:53:11.418Z,26.57
2018-11-27T11:55:40.206Z,26.80
2018-11-27T11:58:09.290Z,20.43
2018-11-27T12:00:42.034Z,22.53
2018-11-27T12:03:10.894Z,22.90
2018-11-27T12:05:39.741Z,20.23
2018-11-27T12:08:09.229Z,22.93
2018-11-27T12:10:38.498Z,17.43
2018-11-27T12:13:08.851Z,20.80
2018-11-27T12:15:43.039Z,24.93
2018-11-27T12:18:12.014Z,18.40
2018-11-27T12:20:41.272Z,17.93
2018-11-27T12:23:11.142Z,18.90
2018-11-27T12:25:40.389Z,22.30
2018-11-27T12:28:14.639Z,19.37
2018-11-27T12:30:38.942Z,20.90
2018-11-27T12:33:07.899Z,22.20
2018-11-27T12:35:36.778Z,20.77
2018-11-27T12:38:05.645Z,19.47
2018-11-27T12:40:34.510Z,17.40
2018-11-27T12:43:03.305Z,16.03
2018-11-27T12:45:32.980Z,21.00
2018-11-27T12:48:02.818Z,16.47
2018-11-27T12:50:43.534Z,18.43
2018-11-27T12:53:16.800Z,19.30
2018-11-27T12:55:44.216Z,19.83
2018-11-27T12:58:13.041Z,16.87
2018-11-27T13:00:41.850Z,16.47
2018-11-27T13:03:10.690Z,14.60
2018-11-27T13:05:41.690Z,15.70
2018-11-27T13:08:21.282Z,10.60
2018-11-27T13:10:50.083Z,14.27
2018-11-27T13:13:18.922Z,13.40
2018-11-27T13:15:47.744Z,12.07
2018-11-27T13:18:16.569Z,13.40
2018-11-27T13:20:45.459Z,16.23
2018-11-27T13:23:14.278Z,13.97
2018-11-27T13:25:43.164Z,14.23
2018-11-27T13:28:13.297Z,15.03
2018-11-27T13:30:46.224Z,19.37
2018-11-27T13:33:18.914Z,14.70
2018-11-27T13:35:47.714Z,18.20
2018-11-27T13:38:16.490Z,13.93
2018-11-27T13:40:45.507Z,18.03
2018-11-27T13:43:21.120Z,19.20
2018-11-27T13:45:50.069Z,21.80
2018-11-27T13:48:18.963Z,19.90
2018-11-27T13:50:47.790Z,20.97
2018-11-27T13:53:16.595Z,19.33
2018-11-27T13:55:45.370Z,18.63
2018-11-27T13:58:14.208Z,21.37
2018-11-27T14:00:43.328Z,22.77
2018-11-27T14:03:12.242Z,20.33
2018-11-27T14:05:41.099Z,22.50
2018-11-27T14:08:10.766Z,21.83
2018-11-27T14:10:39.901Z,20.20
2018-11-27T14:13:09.359Z,21.50
2018-11-27T14:15:38.458Z,27.20
2018-11-27T14:18:07.702Z,24.47
2018-11-27T14:20:36.670Z,27.87
2018-11-27T14:23:05.858Z,26.13
2018-11-27T14:25:34.704Z,25.00
2018-11-27T14:28:03.646Z,27.80
2018-11-27T14:30:32.510Z,29.13
2018-11-27T14:33:01.372Z,32.30
2018-11-27T14:35:30.205Z,34.77
2018-11-27T14:37:59.053Z,32.37
2018-11-27T14:40:28.430Z,34.17
2018-11-27T14:42:57.274Z,34.73
2018-11-27T14:45:27.085Z,32.03
2018-11-27T14:47:57.226Z,35.83
2018-11-27T14:50:26.029Z,41.00
2018-11-27T14:52:54.869Z,45.50
2018-11-27T14:55:27.709Z,43.27
2018-11-27T14:57:56.557Z,45.77
2018-11-27T15:00:25.939Z,44.17
2018-11-27T15:02:54.933Z,43.07
2018-11-27T15:05:31.863Z,45.23
2018-11-27T15:08:00.750Z,38.63
2018-11-27T15:10:29.586Z,36.17
2018-11-27T15:12:58.539Z,41.40
2018-11-27T15:15:27.355Z,46.10
2018-11-27T15:17:56.202Z,47.73
2018-11-27T15:20:25.078Z,48.00
2018-11-27T15:22:53.876Z,42.27
2018-11-27T15:25:22.757Z,43.80
2018-11-27T15:27:51.621Z,41.27
2018-11-27T15:30:22.509Z,38.30
2018-11-27T15:32:52.311Z,40.17
2018-11-27T15:35:21.309Z,39.40
2018-11-27T15:37:50.281Z,39.60
2018-11-27T15:40:20.978Z,44.17
2018-11-27T15:42:50.174Z,45.97
2018-11-27T15:45:20.362Z,44.93
2018-11-27T15:47:49.293Z,48.03
2018-11-27T15:50:18.418Z,48.77
2018-11-27T15:52:47.405Z,47.77
2018-11-27T15:55:19.905Z,46.43
2018-11-27T15:57:50.403Z,42.10
2018-11-27T16:00:21.068Z,35.03
2018-11-27T16:03:04.189Z,43.60
2018-11-27T16:08:53.249Z,45.07
2018-11-27T16:11:24.880Z,44.20
2018-11-27T16:13:55.742Z,41.33
2018-11-27T16:16:31.641Z,48.80
2018-11-27T16:19:02.999Z,44.90
2018-11-27T16:21:35.491Z,43.33
2018-11-27T16:24:05.147Z,43.63
2018-11-27T16:26:34.323Z,44.80
2018-11-27T16:29:03.374Z,48.57
2018-11-27T16:31:36.388Z,47.63
2018-11-27T16:34:05.954Z,47.73
2018-11-27T16:36:36.614Z,47.60
2018-11-27T16:39:11.390Z,45.63
2018-11-27T16:41:40.376Z,46.20
2018-11-27T16:44:09.502Z,54.53
2018-11-27T16:46:38.653Z,47.33
2018-11-27T16:49:07.819Z,49.13
2018-11-27T16:51:36.698Z,145.30
2018-11-27T16:54:05.845Z,57.13
2018-11-27T16:56:34.457Z,88.20
2018-11-27T16:59:03.055Z,66.40
2018-11-27T17:01:31.826Z,54.97
2018-11-27T17:04:00.733Z,43.73
2018-11-27T17:06:29.675Z,43.37
2018-11-27T17:08:58.529Z,50.67
2018-11-27T17:11:27.352Z,97.27
2018-11-27T17:13:56.230Z,91.77
2018-11-27T17:16:25.010Z,63.80
2018-11-27T17:18:53.888Z,47.03
2018-11-27T17:21:22.758Z,47.80
2018-11-27T17:23:51.610Z,43.47
2018-11-27T17:26:20.378Z,49.67
2018-11-27T17:28:49.308Z,50.10
2018-11-27T17:31:18.245Z,47.13
2018-11-27T17:33:51.986Z,50.67
2018-11-27T17:36:20.815Z,48.40
2018-11-27T17:38:49.673Z,51.57
2018-11-27T17:41:18.534Z,52.60
2018-11-27T17:43:47.504Z,54.77
2018-11-27T17:46:16.357Z,57.80
2018-11-27T17:48:45.211Z,51.43
2018-11-27T17:51:14.009Z,52.97
2018-11-27T17:53:43.005Z,51.87
2018-11-27T17:56:11.943Z,53.37
2018-11-27T17:58:41.133Z,58.67
2018-11-27T18:01:11.779Z,53.70
2018-11-27T18:03:40.662Z,50.93
2018-11-27T18:06:09.572Z,55.40
2018-11-27T18:08:38.491Z,52.73
2018-11-27T18:11:07.510Z,58.50
2018-11-27T18:13:36.465Z,52.13
2018-11-27T18:16:05.622Z,54.00
2018-11-27T18:18:34.677Z,55.30
2018-11-27T18:21:03.843Z,48.43
2018-11-27T18:23:32.778Z,52.53
2018-11-27T18:26:01.719Z,50.17
2018-11-27T18:28:30.765Z,54.63
2018-11-27T18:30:59.816Z,47.53
2018-11-27T18:33:28.810Z,47.60
2018-11-27T18:35:57.859Z,46.63
2018-11-27T18:38:26.943Z,43.83
2018-11-27T18:40:55.898Z,45.30
2018-11-27T18:43:25.082Z,44.93
2018-11-27T18:45:54.489Z,46.10
2018-11-27T18:48:23.467Z,45.90
2018-11-27T18:50:52.362Z,48.83
2018-11-27T18:53:21.478Z,53.23
2018-11-27T18:55:50.512Z,47.00
2018-11-27T18:58:19.471Z,99.27
2018-11-27T19:00:48.623Z,111.20
2018-11-27T19:03:17.851Z,54.37
2018-11-27T19:05:47.012Z,47.27
2018-11-27T19:08:16.052Z,44.33
2018-11-27T19:10:45.008Z,43.73
2018-11-27T19:13:14.092Z,46.00
2018-11-27T19:15:45.747Z,43.57
2018-11-27T19:18:22.075Z,48.33
2018-11-27T19:20:51.178Z,46.27
2018-11-27T19:23:21.833Z,47.20
2018-11-27T19:25:50.783Z,41.30
2018-11-27T19:28:19.676Z,40.90
2018-11-27T19:30:48.869Z,40.30
2018-11-27T19:33:17.891Z,43.77
2018-11-27T19:35:46.899Z,44.43
2018-11-27T19:38:17.343Z,45.83
2018-11-27T19:40:46.267Z,39.10
2018-11-27T19:43:15.294Z,41.97
2018-11-27T19:45:44.192Z,46.23
2018-11-27T19:48:14.130Z,43.73
2018-11-27T19:50:43.099Z,44.30
2018-11-27T19:53:15.008Z,48.77
2018-11-27T19:55:44.604Z,60.40
2018-11-27T19:58:13.736Z,56.87
2018-11-27T20:00:42.713Z,40.13
2018-11-27T20:03:12.352Z,35.10
2018-11-27T20:05:41.441Z,35.30
2018-11-27T20:08:13.426Z,42.00
2018-11-27T20:10:42.603Z,41.53
2018-11-27T20:13:11.534Z,37.83
2018-11-27T20:15:40.484Z,40.10
2018-11-27T20:18:09.419Z,34.97
2018-11-27T20:20:38.409Z,36.80
2018-11-27T20:23:07.629Z,33.67
2018-11-27T20:25:37.210Z,35.13
2018-11-27T20:28:07.226Z,39.03
2018-11-27T20:30:36.902Z,38.50
2018-11-27T20:43:09.780Z,36.87
2018-11-27T20:45:38.830Z,35.93
2018-11-27T20:48:13.975Z,34.50
2018-11-27T20:50:43.079Z,31.57
2018-11-27T20:53:12.121Z,35.13
2018-11-27T20:55:42.205Z,101.23
2018-11-27T20:58:11.400Z,56.03
2018-11-27T21:00:42.883Z,53.93
2018-11-27T21:03:12.480Z,46.70
2018-11-27T21:05:41.596Z,97.00
2018-11-27T21:08:10.486Z,75.03
2018-11-27T21:10:39.866Z,60.60
2018-11-27T21:13:10.220Z,55.43
2018-11-27T21:15:40.300Z,55.97
2018-11-27T21:18:10.201Z,199.07
2018-11-27T21:20:39.612Z,75.17
2018-11-27T21:23:08.565Z,56.20
2018-11-27T21:25:37.514Z,57.77
2018-11-27T21:28:09.983Z,55.97
2018-11-27T21:30:38.953Z,55.13
2018-11-27T21:33:08.039Z,54.77
2018-11-27T21:35:37.087Z,55.70
2018-11-27T21:38:06.434Z,59.53
2018-11-27T21:40:35.747Z,74.13
2018-11-27T21:43:04.818Z,64.50
2018-11-27T21:45:33.713Z,88.23
2018-11-27T21:48:02.885Z,94.67
2018-11-27T21:50:36.980Z,118.43
2018-11-27T21:53:05.934Z,113.23
2018-11-27T21:55:35.485Z,101.73
2018-11-27T21:58:03.712Z,103.23
2018-11-27T22:00:32.816Z,111.43
2018-11-27T22:03:01.695Z,121.80
2018-11-27T22:05:30.645Z,125.90
2018-11-27T22:07:59.874Z,103.30
2018-11-27T22:10:28.826Z,101.80
2018-11-27T22:12:59.248Z,86.47
2018-11-27T22:15:31.930Z,101.40
2018-11-27T22:18:00.838Z,85.17
2018-11-27T22:20:29.763Z,97.97
2018-11-27T22:22:59.766Z,96.60
2018-11-27T22:25:28.716Z,71.57
2018-11-27T22:27:57.589Z,81.10
2018-11-27T22:30:26.460Z,85.43
2018-11-27T22:32:55.866Z,77.30
2018-11-27T22:35:24.773Z,73.50
2018-11-27T22:37:53.646Z,72.50
2018-11-27T22:40:24.059Z,62.63
2018-11-27T22:42:55.035Z,81.63
2018-11-27T22:45:26.765Z,79.40
2018-11-27T22:47:55.726Z,85.73
2018-11-27T22:50:25.154Z,95.90
2018-11-27T22:52:54.038Z,95.10
2018-11-27T22:55:23.091Z,79.07
2018-11-27T22:57:51.976Z,70.67
2018-11-27T23:00:27.029Z,78.80
2018-11-27T23:02:56.006Z,90.03
2018-11-27T23:05:24.921Z,90.80
2018-11-27T23:07:54.033Z,70.00
2018-11-27T23:10:22.850Z,68.00
2018-11-27T23:12:51.714Z,68.27
2018-11-27T23:15:21.633Z,72.77
2018-11-27T23:17:50.432Z,87.43
2018-11-27T23:20:19.742Z,77.37
2018-11-27T23:22:48.699Z,68.50
2018-11-27T23:25:18.706Z,68.63
2018-11-27T23:27:47.618Z,63.90
2018-11-27T23:30:18.492Z,78.93
2018-11-27T23:32:47.434Z,73.33
2018-11-27T23:35:16.455Z,71.07
2018-11-27T23:37:45.255Z,73.17
2018-11-27T23:40:15.367Z,66.20
2018-11-27T23:42:44.388Z,79.80
2018-11-27T23:45:15.960Z,67.20
2018-11-27T23:47:44.805Z,62.20
2018-11-27T23:50:14.731Z,64.07
2018-11-27T23:52:43.719Z,65.70
2018-11-27T23:55:13.488Z,63.67
2018-11-27T23:57:42.641Z,64.27
